Time,TemperatureF,DewpointF,PressureIn,WindDirection,WindDirectionDegrees,WindSpeedMPH,WindSpeedGustMPH,Humidity,HourlyPrecipIn,Conditions,Clouds,dailyrainin,SoftwareType,DateUTC
2013-07-31 00:05:00,63.3,59.7,29.97,NW,315,0.0,-999.0,88,-99.99,,,0.00,Acu-Link.com,2013-07-31 04:05:00,
2013-07-31 00:20:00,63.3,60.0,29.97,NW,315,0.0,-999.0,89,-99.99,,,0.00,Acu-Link.com,2013-07-31 04:20:00,
2013-07-31 00:35:00,62.6,59.9,29.97,NW,315,0.0,-999.0,91,-99.99,,,0.00,Acu-Link.com,2013-07-31 04:35:00,
2013-07-31 00:50:00,62.1,59.7,29.96,NW,315,0.0,-999.0,92,-99.99,,,0.00,Acu-Link.com,2013-07-31 04:50:00,
2013-07-31 01:16:00,62.1,59.7,29.96,NW,315,0.0,-999.0,92,-99.99,,,0.00,Acu-Link.com,2013-07-31 05:16:00,
2013-07-31 01:51:00,60.1,58.7,29.96,NW,315,0.0,-999.0,95,-99.99,,,0.00,Acu-Link.com,2013-07-31 05:51:00,
2013-07-31 02:43:00,60.1,58.7,29.96,NW,315,2.2,-999.0,95,-99.99,,,0.00,Acu-Link.com,2013-07-31 06:43:00,
2013-07-31 02:58:00,60.3,58.9,29.96,NW,315,0.0,-999.0,95,-99.99,,,0.00,Acu-Link.com,2013-07-31 06:58:00,
2013-07-31 03:30:00,59.4,58.8,29.97,NW,315,0.0,-999.0,98,-99.99,,,0.00,Acu-Link.com,2013-07-31 07:30:00,
2013-07-31 04:01:00,59.4,58.8,29.97,NW,315,0.0,-999.0,98,-99.99,,,0.00,Acu-Link.com,2013-07-31 08:01:00,
2013-07-31 06:16:00,57.4,57.1,30.00,WNW,292,0.0,-999.0,99,-99.99,,,0.00,Acu-Link.com,2013-07-31 10:16:00,
2013-07-31 06:46:00,58.1,57.8,30.01,ESE,112,0.0,-999.0,99,-99.99,,,0.00,Acu-Link.com,2013-07-31 10:46:00,
2013-07-31 07:03:00,59.9,59.6,30.02,ESE,112,0.0,-999.0,99,-99.99,,,0.00,Acu-Link.com,2013-07-31 11:03:00,
2013-07-31 07:19:00,63.3,61.5,30.02,ESE,112,1.1,-999.0,94,-99.99,,,0.00,Acu-Link.com,2013-07-31 11:19:00,
2013-07-31 07:34:00,67.3,64.3,30.02,WNW,292,2.2,-999.0,90,-99.99,,,0.00,Acu-Link.com,2013-07-31 11:34:00,
2013-07-31 07:50:00,68.9,63.9,30.02,WNW,292,1.7,-999.0,84,-99.99,,,0.00,Acu-Link.com,2013-07-31 11:50:00,
2013-07-31 08:09:00,72.1,63.7,30.02,WNW,292,3.2,-999.0,75,-99.99,,,0.00,Acu-Link.com,2013-07-31 12:09:00,
2013-07-31 08:25:00,73.4,64.6,30.02,West,270,3.7,-999.0,74,-99.99,,,0.00,Acu-Link.com,2013-07-31 12:25:00,
2013-07-31 08:41:00,75.4,64.1,30.02,ENE,67,4.7,-999.0,68,-99.99,,,0.00,Acu-Link.com,2013-07-31 12:41:00,
2013-07-31 08:56:00,77.7,63.6,30.03,West,270,3.2,-999.0,62,-99.99,,,0.00,Acu-Link.com,2013-07-31 12:56:00,
2013-07-31 09:15:00,77.7,63.2,30.01,ENE,67,1.7,-999.0,61,-99.99,,,0.00,Acu-Link.com,2013-07-31 13:15:00,
2013-07-31 09:30:00,74.8,61.3,30.02,West,270,3.2,-999.0,63,-99.99,,,0.00,Acu-Link.com,2013-07-31 13:30:00,
2013-07-31 09:45:00,75.7,62.6,30.01,East,90,3.7,-999.0,64,-99.99,,,0.00,Acu-Link.com,2013-07-31 13:45:00,
2013-07-31 10:01:00,77.2,63.2,30.00,NNE,22,5.3,-999.0,62,-99.99,,,0.00,Acu-Link.com,2013-07-31 14:01:00,
2013-07-31 10:16:00,77.4,62.9,30.00,NE,45,2.7,-999.0,61,-99.99,,,0.00,Acu-Link.com,2013-07-31 14:16:00,
2013-07-31 10:31:00,77.4,62.9,29.99,SE,135,1.7,-999.0,61,-99.99,,,0.00,Acu-Link.com,2013-07-31 14:31:00,
2013-07-31 11:01:00,79.2,62.1,29.98,NE,45,5.8,-999.0,56,-99.99,,,0.00,Acu-Link.com,2013-07-31 15:01:00,
2013-07-31 11:16:00,79.2,62.6,29.99,ESE,112,2.2,-999.0,57,-99.99,,,0.00,Acu-Link.com,2013-07-31 15:16:00,
2013-07-31 11:32:00,80.1,62.5,29.99,NNE,22,5.3,-999.0,55,-99.99,,,0.00,Acu-Link.com,2013-07-31 15:32:00,
2013-07-31 11:47:00,80.4,62.2,29.99,NNE,22,4.7,-999.0,54,-99.99,,,0.00,Acu-Link.com,2013-07-31 15:47:00,
2013-07-31 12:02:00,78.6,60.5,29.99,West,270,3.2,-999.0,54,-99.99,,,0.00,Acu-Link.com,2013-07-31 16:02:00,
2013-07-31 12:17:00,79.3,61.7,29.98,North,0,1.7,-999.0,55,-99.99,,,0.00,Acu-Link.com,2013-07-31 16:17:00,
2013-07-31 12:32:00,80.4,60.0,29.97,NNW,337,1.7,-999.0,50,-99.99,,,0.00,Acu-Link.com,2013-07-31 16:32:00,
2013-07-31 12:47:00,81.3,61.4,29.97,NNE,22,2.2,-999.0,51,-99.99,,,0.00,Acu-Link.com,2013-07-31 16:47:00,
2013-07-31 13:02:00,83.3,62.1,29.96,West,270,4.2,-999.0,49,-99.99,,,0.00,Acu-Link.com,2013-07-31 17:02:00,
2013-07-31 13:18:00,80.6,60.8,29.97,SE,135,5.8,-999.0,51,-99.99,,,0.00,Acu-Link.com,2013-07-31 17:18:00,
2013-07-31 13:33:00,81.1,63.9,29.96,SE,135,1.7,-999.0,56,-99.99,,,0.00,Acu-Link.com,2013-07-31 17:33:00,
2013-07-31 13:48:00,79.7,61.0,29.95,NNW,337,1.1,-999.0,53,-99.99,,,0.00,Acu-Link.com,2013-07-31 17:48:00,
2013-07-31 14:03:00,84.0,62.2,29.95,ENE,67,4.7,-999.0,48,-99.99,,,0.00,Acu-Link.com,2013-07-31 18:03:00,
2013-07-31 14:18:00,83.3,62.7,29.95,SSW,202,2.2,-999.0,50,-99.99,,,0.00,Acu-Link.com,2013-07-31 18:18:00,
2013-07-31 14:33:00,80.6,61.9,29.95,SSW,202,2.2,-999.0,53,-99.99,,,0.00,Acu-Link.com,2013-07-31 18:33:00,
2013-07-31 14:59:00,80.6,61.9,29.94,SSW,202,2.2,-999.0,53,-99.99,,,0.00,Acu-Link.com,2013-07-31 18:59:00,
2013-07-31 15:23:00,79.5,62.9,29.94,West,270,2.7,-999.0,57,-99.99,,,0.00,Acu-Link.com,2013-07-31 19:23:00,
2013-07-31 15:39:00,82.9,59.4,29.93,West,270,2.7,-999.0,45,-99.99,,,0.00,Acu-Link.com,2013-07-31 19:39:00,
2013-07-31 15:56:00,82.4,61.9,29.93,SW,225,2.7,-999.0,50,-99.99,,,0.00,Acu-Link.com,2013-07-31 19:56:00,
2013-07-31 16:42:00,81.1,60.1,29.93,SW,225,1.7,-999.0,49,-99.99,,,0.00,Acu-Link.com,2013-07-31 20:42:00,
2013-07-31 16:57:00,80.6,63.9,29.93,SE,135,1.7,-999.0,57,-99.99,,,0.00,Acu-Link.com,2013-07-31 20:57:00,
2013-07-31 17:13:00,82.4,60.1,29.93,South,180,2.2,-999.0,47,-99.99,,,0.00,Acu-Link.com,2013-07-31 21:13:00,
2013-07-31 17:28:00,81.3,60.9,29.92,NNE,22,0.0,-999.0,50,-99.99,,,0.00,Acu-Link.com,2013-07-31 21:28:00,
2013-07-31 17:43:00,81.9,63.1,29.92,South,180,3.2,-999.0,53,-99.99,,,0.00,Acu-Link.com,2013-07-31 21:43:00,
2013-07-31 17:58:00,84.4,64.3,29.92,ESE,112,0.0,-999.0,51,-99.99,,,0.00,Acu-Link.com,2013-07-31 21:58:00,
2013-07-31 18:13:00,82.9,66.6,29.93,ESE,112,0.0,-999.0,58,-99.99,,,0.00,Acu-Link.com,2013-07-31 22:13:00,
2013-07-31 18:28:00,78.6,67.1,29.93,ESE,112,0.0,-999.0,68,-99.99,,,0.00,Acu-Link.com,2013-07-31 22:28:00,
2013-07-31 18:44:00,81.0,67.7,29.93,ENE,67,0.0,-999.0,64,-99.99,,,0.00,Acu-Link.com,2013-07-31 22:44:00,
2013-07-31 18:59:00,77.4,67.2,29.92,ESE,112,0.0,-999.0,71,-99.99,,,0.00,Acu-Link.com,2013-07-31 22:59:00,
2013-07-31 19:14:00,75.0,67.3,29.93,ESE,112,0.0,-999.0,77,-99.99,,,0.00,Acu-Link.com,2013-07-31 23:14:00,
2013-07-31 19:29:00,75.4,67.3,29.91,ESE,112,0.0,-999.0,76,-99.99,,,0.00,Acu-Link.com,2013-07-31 23:29:00,
2013-07-31 19:44:00,73.4,66.8,29.92,ESE,112,0.0,-999.0,80,-99.99,,,0.00,Acu-Link.com,2013-07-31 23:44:00,
2013-07-31 19:59:00,72.3,66.1,29.91,ESE,112,0.0,-999.0,81,-99.99,,,0.00,Acu-Link.com,2013-07-31 23:59:00,
2013-07-31 20:14:00,71.4,65.6,29.91,West,270,0.0,-999.0,82,-99.99,,,0.00,Acu-Link.com,2013-08-01 00:14:00,
2013-07-31 20:29:00,69.6,64.9,29.91,SSW,202,0.0,-999.0,85,-99.99,,,0.00,Acu-Link.com,2013-08-01 00:29:00,
2013-07-31 20:44:00,68.2,64.5,29.91,SE,135,0.0,-999.0,88,-99.99,,,0.00,Acu-Link.com,2013-08-01 00:44:00,
2013-07-31 20:59:00,67.5,64.5,29.92,North,0,0.0,-999.0,90,-99.99,,,0.00,Acu-Link.com,2013-08-01 00:59:00,
2013-07-31 21:15:00,66.7,64.0,29.91,NNE,22,0.0,-999.0,91,-99.99,,,0.00,Acu-Link.com,2013-08-01 01:15:00,
2013-07-31 21:30:00,66.2,63.8,29.92,East,90,0.0,-999.0,92,-99.99,,,0.00,Acu-Link.com,2013-08-01 01:30:00,
2013-07-31 21:45:00,65.8,63.7,29.92,NE,45,0.0,-999.0,93,-99.99,,,0.00,Acu-Link.com,2013-08-01 01:45:00,
2013-07-31 22:00:00,65.5,64.0,29.93,NNE,22,0.0,-999.0,95,-99.99,,,0.00,Acu-Link.com,2013-08-01 02:00:00,
2013-07-31 22:15:00,65.1,63.9,29.92,NE,45,0.0,-999.0,96,-99.99,,,0.00,Acu-Link.com,2013-08-01 02:15:00,
2013-07-31 22:30:00,64.8,63.9,29.93,NW,315,0.0,-999.0,97,-99.99,,,0.00,Acu-Link.com,2013-08-01 02:30:00,
2013-07-31 22:45:00,64.4,63.5,29.93,North,0,0.0,-999.0,97,-99.99,,,0.00,Acu-Link.com,2013-08-01 02:45:00,
2013-07-31 23:00:00,63.9,63.0,29.93,North,0,0.0,-999.0,97,-99.99,,,0.00,Acu-Link.com,2013-08-01 03:00:00,
2013-07-31 23:15:00,63.5,62.6,29.93,NNE,22,0.0,-999.0,97,-99.99,,,0.00,Acu-Link.com,2013-08-01 03:15:00,
2013-07-31 23:31:00,63.1,62.2,29.92,NNE,22,0.0,-999.0,97,-99.99,,,0.00,Acu-Link.com,2013-08-01 03:31:00,
2013-07-31 23:46:00,63.0,62.1,29.93,NE,45,0.0,-999.0,97,-99.99,,,0.00,Acu-Link.com,2013-08-01 03:46:00,